sensor_id;sensor_type;location;lat;lon;timestamp;temperature;humidity
33881;DHT22;20172;47.530;10.256;2023-02-18T00:00:55;10.00;99.90
33881;DHT22;20172;47.530;10.256;2023-02-18T00:03:22;10.00;99.90
33881;DHT22;20172;47.530;10.256;2023-02-18T00:05:48;9.90;99.90
33881;DHT22;20172;47.530;10.256;2023-02-18T00:08:14;9.80;99.90
33881;DHT22;20172;47.530;10.256;2023-02-18T00:10:40;9.80;99.90
33881;DHT22;20172;47.530;10.256;2023-02-18T00:13:06;9.90;99.90
33881;DHT22;20172;47.530;10.256;2023-02-18T00:15:33;9.90;99.90
33881;DHT22;20172;47.530;10.256;2023-02-18T00:17:59;10.00;99.90
33881;DHT22;20172;47.530;10.256;2023-02-18T00:20:24;10.00;99.90
33881;DHT22;20172;47.530;10.256;2023-02-18T00:22:50;10.00;99.90
33881;DHT22;20172;47.530;10.256;2023-02-18T00:25:15;10.10;99.90
33881;DHT22;20172;47.530;10.256;2023-02-18T00:27:41;10.20;99.90
33881;DHT22;20172;47.530;10.256;2023-02-18T00:30:07;10.20;99.90
33881;DHT22;20172;47.530;10.256;2023-02-18T00:32:33;10.20;99.90
33881;DHT22;20172;47.530;10.256;2023-02-18T00:34:58;10.10;99.90
33881;DHT22;20172;47.530;10.256;2023-02-18T00:37:24;10.10;99.90
33881;DHT22;20172;47.530;10.256;2023-02-18T00:39:49;10.10;99.90
33881;DHT22;20172;47.530;10.256;2023-02-18T00:42:15;10.10;99.90
33881;DHT22;20172;47.530;10.256;2023-02-18T00:44:40;10.10;99.90
33881;DHT22;20172;47.530;10.256;2023-02-18T00:47:06;10.10;99.90
33881;DHT22;20172;47.530;10.256;2023-02-18T00:49:31;10.10;99.90
33881;DHT22;20172;47.530;10.256;2023-02-18T00:51:57;10.10;99.90
33881;DHT22;20172;47.530;10.256;2023-02-18T00:54:23;10.10;99.90
33881;DHT22;20172;47.530;10.256;2023-02-18T00:56:48;10.10;99.90
33881;DHT22;20172;47.530;10.256;2023-02-18T00:59:14;10.10;99.90
33881;DHT22;20172;47.530;10.256;2023-02-18T01:01:39;10.10;99.90
33881;DHT22;20172;47.530;10.256;2023-02-18T01:04:05;10.20;99.90
33881;DHT22;20172;47.530;10.256;2023-02-18T01:06:30;10.10;99.90
33881;DHT22;20172;47.530;10.256;2023-02-18T01:08:56;10.00;99.90
33881;DHT22;20172;47.530;10.256;2023-02-18T01:11:21;9.90;99.90
33881;DHT22;20172;47.530;10.256;2023-02-18T01:13:47;10.00;99.90
33881;DHT22;20172;47.530;10.256;2023-02-18T01:16:13;9.90;99.90
33881;DHT22;20172;47.530;10.256;2023-02-18T01:18:38;9.80;99.90
33881;DHT22;20172;47.530;10.256;2023-02-18T01:21:04;9.80;99.90
33881;DHT22;20172;47.530;10.256;2023-02-18T01:23:33;9.80;99.90
33881;DHT22;20172;47.530;10.256;2023-02-18T01:25:58;9.80;99.90
33881;DHT22;20172;47.530;10.256;2023-02-18T01:28:24;9.70;99.90
33881;DHT22;20172;47.530;10.256;2023-02-18T01:30:50;9.60;99.90
33881;DHT22;20172;47.530;10.256;2023-02-18T01:33:16;9.70;99.90
33881;DHT22;20172;47.530;10.256;2023-02-18T01:35:42;9.50;99.90
33881;DHT22;20172;47.530;10.256;2023-02-18T01:38:07;9.40;99.90
33881;DHT22;20172;47.530;10.256;2023-02-18T01:40:33;9.30;99.90
33881;DHT22;20172;47.530;10.256;2023-02-18T01:42:59;9.30;99.90
33881;DHT22;20172;47.530;10.256;2023-02-18T01:47:56;9.10;99.90
33881;DHT22;20172;47.530;10.256;2023-02-18T01:50:22;9.20;99.90
33881;DHT22;20172;47.530;10.256;2023-02-18T01:52:48;9.10;99.90
33881;DHT22;20172;47.530;10.256;2023-02-18T01:55:13;9.10;99.90
33881;DHT22;20172;47.530;10.256;2023-02-18T01:57:39;9.20;99.90
33881;DHT22;20172;47.530;10.256;2023-02-18T02:00:06;9.20;99.90
33881;DHT22;20172;47.530;10.256;2023-02-18T02:02:34;9.10;99.90
33881;DHT22;20172;47.530;10.256;2023-02-18T02:05:00;9.10;99.90
33881;DHT22;20172;47.530;10.256;2023-02-18T02:07:26;9.10;99.90
33881;DHT22;20172;47.530;10.256;2023-02-18T02:09:53;9.10;99.90
33881;DHT22;20172;47.530;10.256;2023-02-18T02:22:59;9.30;99.90
33881;DHT22;20172;47.530;10.256;2023-02-18T02:30:53;9.40;99.90
33881;DHT22;20172;47.530;10.256;2023-02-18T02:36:15;9.40;99.90
33881;DHT22;20172;47.530;10.256;2023-02-18T02:47:07;9.20;99.90
33881;DHT22;20172;47.530;10.256;2023-02-18T02:49:31;9.20;99.90
33881;DHT22;20172;47.530;10.256;2023-02-18T02:54:24;9.10;99.90
33881;DHT22;20172;47.530;10.256;2023-02-18T02:57:00;9.10;99.90
33881;DHT22;20172;47.530;10.256;2023-02-18T02:59:28;9.10;99.90
33881;DHT22;20172;47.530;10.256;2023-02-18T03:02:18;9.20;99.90
33881;DHT22;20172;47.530;10.256;2023-02-18T03:15:04;9.40;99.90
33881;DHT22;20172;47.530;10.256;2023-02-18T03:17:34;9.30;99.90
33881;DHT22;20172;47.530;10.256;2023-02-18T03:20:04;9.20;99.90
33881;DHT22;20172;47.530;10.256;2023-02-18T03:22:32;9.10;99.90
33881;DHT22;20172;47.530;10.256;2023-02-18T03:24:58;9.10;99.90
33881;DHT22;20172;47.530;10.256;2023-02-18T03:27:26;9.10;99.90
33881;DHT22;20172;47.530;10.256;2023-02-18T03:29:54;9.10;99.90
33881;DHT22;20172;47.530;10.256;2023-02-18T03:32:21;9.10;99.90
33881;DHT22;20172;47.530;10.256;2023-02-18T03:34:49;9.00;99.90
33881;DHT22;20172;47.530;10.256;2023-02-18T03:37:15;9.00;99.90
33881;DHT22;20172;47.530;10.256;2023-02-18T03:39:43;9.00;99.90
33881;DHT22;20172;47.530;10.256;2023-02-18T03:42:10;9.00;99.90
33881;DHT22;20172;47.530;10.256;2023-02-18T03:44:35;9.00;99.90
33881;DHT22;20172;47.530;10.256;2023-02-18T03:47:01;8.90;99.90
33881;DHT22;20172;47.530;10.256;2023-02-18T03:49:26;8.90;99.90
33881;DHT22;20172;47.530;10.256;2023-02-18T03:51:52;8.80;99.90
33881;DHT22;20172;47.530;10.256;2023-02-18T03:54:17;8.80;99.90
33881;DHT22;20172;47.530;10.256;2023-02-18T03:56:44;8.80;99.90
33881;DHT22;20172;47.530;10.256;2023-02-18T03:59:10;8.80;99.90
33881;DHT22;20172;47.530;10.256;2023-02-18T04:01:36;8.80;99.90
33881;DHT22;20172;47.530;10.256;2023-02-18T04:04:01;8.70;99.90
33881;DHT22;20172;47.530;10.256;2023-02-18T04:06:27;8.70;99.90
33881;DHT22;20172;47.530;10.256;2023-02-18T04:08:53;8.70;99.90
33881;DHT22;20172;47.530;10.256;2023-02-18T04:11:18;8.60;99.90
33881;DHT22;20172;47.530;10.256;2023-02-18T04:13:44;8.60;99.90
33881;DHT22;20172;47.530;10.256;2023-02-18T04:16:09;8.60;99.90
33881;DHT22;20172;47.530;10.256;2023-02-18T04:18:35;8.60;99.90
33881;DHT22;20172;47.530;10.256;2023-02-18T04:21:00;8.50;99.90
33881;DHT22;20172;47.530;10.256;2023-02-18T04:23:26;8.50;99.90
33881;DHT22;20172;47.530;10.256;2023-02-18T04:25:51;8.50;99.90
33881;DHT22;20172;47.530;10.256;2023-02-18T04:28:17;8.30;99.90
33881;DHT22;20172;47.530;10.256;2023-02-18T04:30:43;8.20;99.90
33881;DHT22;20172;47.530;10.256;2023-02-18T04:33:09;8.10;99.90
33881;DHT22;20172;47.530;10.256;2023-02-18T04:35:34;8.10;99.90
33881;DHT22;20172;47.530;10.256;2023-02-18T04:38:01;8.00;99.90
33881;DHT22;20172;47.530;10.256;2023-02-18T04:40:27;8.00;99.90
33881;DHT22;20172;47.530;10.256;2023-02-18T04:42:58;8.00;99.90
33881;DHT22;20172;47.530;10.256;2023-02-18T04:45:24;8.00;99.90
33881;DHT22;20172;47.530;10.256;2023-02-18T04:47:50;8.00;99.90
33881;DHT22;20172;47.530;10.256;2023-02-18T04:50:16;8.00;99.90
33881;DHT22;20172;47.530;10.256;2023-02-18T04:52:41;8.00;99.90
33881;DHT22;20172;47.530;10.256;2023-02-18T04:55:07;8.00;99.90
33881;DHT22;20172;47.530;10.256;2023-02-18T04:57:32;8.00;99.90
33881;DHT22;20172;47.530;10.256;2023-02-18T04:59:58;7.90;99.90
33881;DHT22;20172;47.530;10.256;2023-02-18T05:02:23;7.80;99.90
33881;DHT22;20172;47.530;10.256;2023-02-18T05:04:49;7.70;99.90
33881;DHT22;20172;47.530;10.256;2023-02-18T05:07:14;7.60;99.90
33881;DHT22;20172;47.530;10.256;2023-02-18T05:09:40;7.60;99.90
33881;DHT22;20172;47.530;10.256;2023-02-18T05:12:06;7.60;99.90
33881;DHT22;20172;47.530;10.256;2023-02-18T05:14:31;7.60;99.90
33881;DHT22;20172;47.530;10.256;2023-02-18T05:16:57;7.60;99.90
33881;DHT22;20172;47.530;10.256;2023-02-18T05:19:22;7.50;99.90
33881;DHT22;20172;47.530;10.256;2023-02-18T05:21:48;7.50;99.90
33881;DHT22;20172;47.530;10.256;2023-02-18T05:24:13;7.40;99.90
33881;DHT22;20172;47.530;10.256;2023-02-18T05:26:39;7.40;99.90
33881;DHT22;20172;47.530;10.256;2023-02-18T05:29:04;7.40;99.90
33881;DHT22;20172;47.530;10.256;2023-02-18T05:31:30;7.40;99.90
33881;DHT22;20172;47.530;10.256;2023-02-18T05:33:55;7.40;99.90
33881;DHT22;20172;47.530;10.256;2023-02-18T05:36:21;7.40;99.90
33881;DHT22;20172;47.530;10.256;2023-02-18T05:38:46;7.40;99.90
33881;DHT22;20172;47.530;10.256;2023-02-18T05:41:12;7.40;99.90
33881;DHT22;20172;47.530;10.256;2023-02-18T05:43:37;7.30;99.90
33881;DHT22;20172;47.530;10.256;2023-02-18T05:46:22;7.20;99.90
33881;DHT22;20172;47.530;10.256;2023-02-18T05:48:47;7.20;99.90
33881;DHT22;20172;47.530;10.256;2023-02-18T05:51:13;7.20;99.90
33881;DHT22;20172;47.530;10.256;2023-02-18T05:53:39;7.30;99.90
33881;DHT22;20172;47.530;10.256;2023-02-18T05:56:04;7.20;99.90
33881;DHT22;20172;47.530;10.256;2023-02-18T05:58:30;7.20;99.90
33881;DHT22;20172;47.530;10.256;2023-02-18T06:00:56;7.20;99.90
33881;DHT22;20172;47.530;10.256;2023-02-18T06:03:21;7.20;99.90
33881;DHT22;20172;47.530;10.256;2023-02-18T06:05:50;7.20;99.90
33881;DHT22;20172;47.530;10.256;2023-02-18T06:08:15;7.10;99.90
33881;DHT22;20172;47.530;10.256;2023-02-18T06:10:41;7.10;99.90
33881;DHT22;20172;47.530;10.256;2023-02-18T06:13:07;7.10;99.90
33881;DHT22;20172;47.530;10.256;2023-02-18T06:15:32;7.10;99.90
33881;DHT22;20172;47.530;10.256;2023-02-18T06:17:57;7.10;99.90
33881;DHT22;20172;47.530;10.256;2023-02-18T06:20:23;7.10;99.90
33881;DHT22;20172;47.530;10.256;2023-02-18T06:22:48;7.20;99.90
33881;DHT22;20172;47.530;10.256;2023-02-18T06:25:14;7.10;99.90
33881;DHT22;20172;47.530;10.256;2023-02-18T06:27:40;7.10;99.90
33881;DHT22;20172;47.530;10.256;2023-02-18T06:30:05;7.20;99.90
33881;DHT22;20172;47.530;10.256;2023-02-18T06:32:31;7.10;99.90
33881;DHT22;20172;47.530;10.256;2023-02-18T06:34:56;7.00;99.90
33881;DHT22;20172;47.530;10.256;2023-02-18T06:37:22;7.00;99.90
33881;DHT22;20172;47.530;10.256;2023-02-18T06:39:47;6.90;99.90
33881;DHT22;20172;47.530;10.256;2023-02-18T06:42:15;6.80;99.90
33881;DHT22;20172;47.530;10.256;2023-02-18T06:44:40;6.80;99.90
33881;DHT22;20172;47.530;10.256;2023-02-18T06:47:06;6.90;99.90
33881;DHT22;20172;47.530;10.256;2023-02-18T06:49:31;6.90;99.90
33881;DHT22;20172;47.530;10.256;2023-02-18T06:51:57;7.10;99.90
33881;DHT22;20172;47.530;10.256;2023-02-18T06:54:22;7.20;99.90
33881;DHT22;20172;47.530;10.256;2023-02-18T06:56:49;7.20;99.90
33881;DHT22;20172;47.530;10.256;2023-02-18T06:59:15;7.30;99.90
33881;DHT22;20172;47.530;10.256;2023-02-18T07:01:40;7.50;99.90
33881;DHT22;20172;47.530;10.256;2023-02-18T07:04:06;7.60;99.90
33881;DHT22;20172;47.530;10.256;2023-02-18T07:06:31;7.60;99.90
33881;DHT22;20172;47.530;10.256;2023-02-18T07:08:57;7.80;99.90
33881;DHT22;20172;47.530;10.256;2023-02-18T07:11:22;7.90;99.90
33881;DHT22;20172;47.530;10.256;2023-02-18T07:13:48;8.00;99.90
33881;DHT22;20172;47.530;10.256;2023-02-18T07:16:13;8.10;99.90
33881;DHT22;20172;47.530;10.256;2023-02-18T07:18:39;8.10;99.90
33881;DHT22;20172;47.530;10.256;2023-02-18T07:21:04;8.20;99.90
33881;DHT22;20172;47.530;10.256;2023-02-18T07:23:30;8.30;99.90
33881;DHT22;20172;47.530;10.256;2023-02-18T07:26:03;8.30;99.90
33881;DHT22;20172;47.530;10.256;2023-02-18T07:28:28;8.40;99.90
33881;DHT22;20172;47.530;10.256;2023-02-18T07:30:54;8.50;99.90
33881;DHT22;20172;47.530;10.256;2023-02-18T07:33:19;8.60;99.90
33881;DHT22;20172;47.530;10.256;2023-02-18T07:35:45;8.80;99.90
33881;DHT22;20172;47.530;10.256;2023-02-18T07:38:10;9.00;99.90
33881;DHT22;20172;47.530;10.256;2023-02-18T07:40:36;9.30;99.90
33881;DHT22;20172;47.530;10.256;2023-02-18T07:43:01;9.50;99.90
33881;DHT22;20172;47.530;10.256;2023-02-18T07:45:27;9.90;99.90
33881;DHT22;20172;47.530;10.256;2023-02-18T07:47:52;10.00;99.90
33881;DHT22;20172;47.530;10.256;2023-02-18T07:50:18;9.90;99.90
33881;DHT22;20172;47.530;10.256;2023-02-18T07:52:43;10.40;99.90
33881;DHT22;20172;47.530;10.256;2023-02-18T07:55:09;11.00;99.90
33881;DHT22;20172;47.530;10.256;2023-02-18T07:57:35;11.20;99.90
33881;DHT22;20172;47.530;10.256;2023-02-18T08:00:20;11.50;99.90
33881;DHT22;20172;47.530;10.256;2023-02-18T08:02:46;11.70;99.90
33881;DHT22;20172;47.530;10.256;2023-02-18T08:05:11;11.70;99.90
33881;DHT22;20172;47.530;10.256;2023-02-18T08:07:37;11.70;99.90
33881;DHT22;20172;47.530;10.256;2023-02-18T08:10:04;11.70;99.90
33881;DHT22;20172;47.530;10.256;2023-02-18T08:12:30;12.00;99.90
33881;DHT22;20172;47.530;10.256;2023-02-18T08:14:55;12.80;99.90
33881;DHT22;20172;47.530;10.256;2023-02-18T08:17:21;13.20;99.90
33881;DHT22;20172;47.530;10.256;2023-02-18T08:19:46;13.50;99.90
33881;DHT22;20172;47.530;10.256;2023-02-18T08:22:12;13.30;99.90
33881;DHT22;20172;47.530;10.256;2023-02-18T08:24:37;13.00;99.90
33881;DHT22;20172;47.530;10.256;2023-02-18T08:27:03;12.90;99.90
33881;DHT22;20172;47.530;10.256;2023-02-18T08:29:28;12.50;99.90
33881;DHT22;20172;47.530;10.256;2023-02-18T08:31:54;12.30;99.90
33881;DHT22;20172;47.530;10.256;2023-02-18T08:34:21;12.30;99.90
33881;DHT22;20172;47.530;10.256;2023-02-18T08:36:47;12.20;99.90
33881;DHT22;20172;47.530;10.256;2023-02-18T08:39:12;12.20;99.90
33881;DHT22;20172;47.530;10.256;2023-02-18T08:41:38;12.20;99.90
33881;DHT22;20172;47.530;10.256;2023-02-18T08:44:03;12.30;99.90
33881;DHT22;20172;47.530;10.256;2023-02-18T08:46:29;12.30;99.90
33881;DHT22;20172;47.530;10.256;2023-02-18T08:48:54;12.30;99.90
33881;DHT22;20172;47.530;10.256;2023-02-18T08:51:21;12.40;99.90
33881;DHT22;20172;47.530;10.256;2023-02-18T08:53:47;12.60;99.90
33881;DHT22;20172;47.530;10.256;2023-02-18T08:56:13;12.80;99.90
33881;DHT22;20172;47.530;10.256;2023-02-18T08:58:39;12.90;99.90
33881;DHT22;20172;47.530;10.256;2023-02-18T09:01:05;13.00;99.90
33881;DHT22;20172;47.530;10.256;2023-02-18T09:03:31;13.10;99.90
33881;DHT22;20172;47.530;10.256;2023-02-18T09:05:57;13.20;99.90
33881;DHT22;20172;47.530;10.256;2023-02-18T09:08:23;13.40;99.90
33881;DHT22;20172;47.530;10.256;2023-02-18T09:10:49;13.50;99.90
33881;DHT22;20172;47.530;10.256;2023-02-18T09:13:14;13.90;99.90
33881;DHT22;20172;47.530;10.256;2023-02-18T09:15:40;14.10;99.90
33881;DHT22;20172;47.530;10.256;2023-02-18T09:18:05;14.30;99.90
33881;DHT22;20172;47.530;10.256;2023-02-18T09:20:31;14.50;99.90
33881;DHT22;20172;47.530;10.256;2023-02-18T09:22:56;14.90;99.90
33881;DHT22;20172;47.530;10.256;2023-02-18T09:25:22;15.10;99.90
33881;DHT22;20172;47.530;10.256;2023-02-18T09:27:48;15.40;99.90
33881;DHT22;20172;47.530;10.256;2023-02-18T09:30:13;16.00;99.90
33881;DHT22;20172;47.530;10.256;2023-02-18T09:32:39;16.60;99.90
33881;DHT22;20172;47.530;10.256;2023-02-18T09:35:04;17.40;99.90
33881;DHT22;20172;47.530;10.256;2023-02-18T09:37:30;18.30;99.30
33881;DHT22;20172;47.530;10.256;2023-02-18T09:39:56;19.00;97.00
33881;DHT22;20172;47.530;10.256;2023-02-18T09:42:28;20.00;95.00
33881;DHT22;20172;47.530;10.256;2023-02-18T09:44:54;21.10;91.40
33881;DHT22;20172;47.530;10.256;2023-02-18T09:47:40;21.50;84.80
33881;DHT22;20172;47.530;10.256;2023-02-18T09:50:29;21.00;84.50
33881;DHT22;20172;47.530;10.256;2023-02-18T09:52:53;20.70;82.70
33881;DHT22;20172;47.530;10.256;2023-02-18T09:55:23;20.70;81.80
33881;DHT22;20172;47.530;10.256;2023-02-18T09:57:53;20.80;80.00
33881;DHT22;20172;47.530;10.256;2023-02-18T10:00:28;20.80;77.90
33881;DHT22;20172;47.530;10.256;2023-02-18T10:02:56;20.80;78.00
33881;DHT22;20172;47.530;10.256;2023-02-18T10:05:23;20.50;76.90
33881;DHT22;20172;47.530;10.256;2023-02-18T10:07:49;20.30;76.50
33881;DHT22;20172;47.530;10.256;2023-02-18T10:10:18;20.50;76.50
33881;DHT22;20172;47.530;10.256;2023-02-18T10:12:45;21.20;72.90
33881;DHT22;20172;47.530;10.256;2023-02-18T10:15:16;21.80;72.00
33881;DHT22;20172;47.530;10.256;2023-02-18T10:17:44;21.50;70.80
33881;DHT22;20172;47.530;10.256;2023-02-18T10:20:10;20.90;72.40
33881;DHT22;20172;47.530;10.256;2023-02-18T10:22:36;21.50;72.70
33881;DHT22;20172;47.530;10.256;2023-02-18T10:25:03;23.20;69.90
33881;DHT22;20172;47.530;10.256;2023-02-18T10:27:31;24.40;65.70
33881;DHT22;20172;47.530;10.256;2023-02-18T10:29:59;23.10;65.70
33881;DHT22;20172;47.530;10.256;2023-02-18T10:32:28;21.90;66.50
33881;DHT22;20172;47.530;10.256;2023-02-18T10:34:59;21.10;68.60
33881;DHT22;20172;47.530;10.256;2023-02-18T10:42:51;20.30;69.20
33881;DHT22;20172;47.530;10.256;2023-02-18T10:47:52;19.40;72.80
33881;DHT22;20172;47.530;10.256;2023-02-18T10:50:34;19.50;73.20
33881;DHT22;20172;47.530;10.256;2023-02-18T10:53:07;20.30;71.20
33881;DHT22;20172;47.530;10.256;2023-02-18T10:55:39;20.70;70.20
33881;DHT22;20172;47.530;10.256;2023-02-18T10:58:22;21.00;69.80
33881;DHT22;20172;47.530;10.256;2023-02-18T11:00:49;21.50;68.10
33881;DHT22;20172;47.530;10.256;2023-02-18T11:03:15;22.30;66.20
33881;DHT22;20172;47.530;10.256;2023-02-18T11:05:42;22.00;65.40
33881;DHT22;20172;47.530;10.256;2023-02-18T11:08:08;21.80;66.10
33881;DHT22;20172;47.530;10.256;2023-02-18T11:10:37;22.10;65.60
33881;DHT22;20172;47.530;10.256;2023-02-18T11:13:07;22.70;64.40
33881;DHT22;20172;47.530;10.256;2023-02-18T11:15:33;24.10;62.60
33881;DHT22;20172;47.530;10.256;2023-02-18T11:21:02;25.90;57.50
33881;DHT22;20172;47.530;10.256;2023-02-18T11:23:28;25.60;57.00
33881;DHT22;20172;47.530;10.256;2023-02-18T11:26:06;26.20;56.50
33881;DHT22;20172;47.530;10.256;2023-02-18T11:28:40;27.10;54.80
33881;DHT22;20172;47.530;10.256;2023-02-18T11:31:07;27.40;54.10
33881;DHT22;20172;47.530;10.256;2023-02-18T11:33:40;27.20;53.40
33881;DHT22;20172;47.530;10.256;2023-02-18T11:36:17;26.50;53.70
33881;DHT22;20172;47.530;10.256;2023-02-18T11:38:45;26.00;54.40
33881;DHT22;20172;47.530;10.256;2023-02-18T11:41:16;25.80;54.10
33881;DHT22;20172;47.530;10.256;2023-02-18T11:43:44;25.80;54.40
33881;DHT22;20172;47.530;10.256;2023-02-18T11:46:11;26.00;54.00
33881;DHT22;20172;47.530;10.256;2023-02-18T11:48:37;27.00;53.40
33881;DHT22;20172;47.530;10.256;2023-02-18T11:51:03;28.70;50.70
33881;DHT22;20172;47.530;10.256;2023-02-18T11:53:36;30.20;48.70
33881;DHT22;20172;47.530;10.256;2023-02-18T11:56:04;30.90;47.60
33881;DHT22;20172;47.530;10.256;2023-02-18T11:58:40;32.20;45.30
33881;DHT22;20172;47.530;10.256;2023-02-18T12:06:19;30.60;43.20
33881;DHT22;20172;47.530;10.256;2023-02-18T12:08:56;30.10;43.30
33881;DHT22;20172;47.530;10.256;2023-02-18T12:11:27;29.90;43.40
33881;DHT22;20172;47.530;10.256;2023-02-18T12:13:56;29.70;44.20
33881;DHT22;20172;47.530;10.256;2023-02-18T12:37:02;34.60;38.10
33881;DHT22;20172;47.530;10.256;2023-02-18T12:50:35;34.10;36.40
33881;DHT22;20172;47.530;10.256;2023-02-18T12:53:11;34.30;35.50
33881;DHT22;20172;47.530;10.256;2023-02-18T13:13:18;31.10;38.30
33881;DHT22;20172;47.530;10.256;2023-02-18T13:18:33;31.60;38.10
33881;DHT22;20172;47.530;10.256;2023-02-18T13:21:00;32.10;37.80
33881;DHT22;20172;47.530;10.256;2023-02-18T13:23:29;32.80;37.30
33881;DHT22;20172;47.530;10.256;2023-02-18T13:25:58;33.80;36.80
33881;DHT22;20172;47.530;10.256;2023-02-18T13:28:44;34.70;36.30
33881;DHT22;20172;47.530;10.256;2023-02-18T13:41:16;35.40;35.80
33881;DHT22;20172;47.530;10.256;2023-02-18T13:43:42;34.30;35.90
33881;DHT22;20172;47.530;10.256;2023-02-18T13:46:10;33.50;36.50
33881;DHT22;20172;47.530;10.256;2023-02-18T13:48:46;32.10;37.10
33881;DHT22;20172;47.530;10.256;2023-02-18T13:51:17;30.80;38.60
33881;DHT22;20172;47.530;10.256;2023-02-18T13:53:52;29.90;39.70
33881;DHT22;20172;47.530;10.256;2023-02-18T13:56:27;28.90;40.60
33881;DHT22;20172;47.530;10.256;2023-02-18T14:01:43;26.70;43.60
33881;DHT22;20172;47.530;10.256;2023-02-18T14:09:39;25.70;45.50
33881;DHT22;20172;47.530;10.256;2023-02-18T14:12:15;26.00;45.20
33881;DHT22;20172;47.530;10.256;2023-02-18T14:14:42;26.60;44.30
33881;DHT22;20172;47.530;10.256;2023-02-18T14:19:52;26.90;43.70
33881;DHT22;20172;47.530;10.256;2023-02-18T14:22:27;27.30;43.30
33881;DHT22;20172;47.530;10.256;2023-02-18T14:25:01;27.10;43.10
33881;DHT22;20172;47.530;10.256;2023-02-18T14:27:27;27.30;42.60
33881;DHT22;20172;47.530;10.256;2023-02-18T14:29:53;26.80;43.10
33881;DHT22;20172;47.530;10.256;2023-02-18T14:32:18;26.50;43.50
33881;DHT22;20172;47.530;10.256;2023-02-18T14:42:33;27.20;43.10
33881;DHT22;20172;47.530;10.256;2023-02-18T14:48:18;27.40;42.30
33881;DHT22;20172;47.530;10.256;2023-02-18T14:50:47;26.20;43.40
33881;DHT22;20172;47.530;10.256;2023-02-18T14:53:13;25.90;44.70
33881;DHT22;20172;47.530;10.256;2023-02-18T14:55:44;27.00;43.50
33881;DHT22;20172;47.530;10.256;2023-02-18T15:00:55;27.90;42.50
33881;DHT22;20172;47.530;10.256;2023-02-18T15:03:21;28.40;42.20
33881;DHT22;20172;47.530;10.256;2023-02-18T15:05:47;29.20;41.20
33881;DHT22;20172;47.530;10.256;2023-02-18T15:08:18;29.10;41.10
33881;DHT22;20172;47.530;10.256;2023-02-18T15:10:51;28.50;42.80
33881;DHT22;20172;47.530;10.256;2023-02-18T15:15:43;28.60;43.10
33881;DHT22;20172;47.530;10.256;2023-02-18T15:18:17;28.80;43.70
33881;DHT22;20172;47.530;10.256;2023-02-18T15:20:44;28.40;41.10
33881;DHT22;20172;47.530;10.256;2023-02-18T15:23:10;27.60;41.80
33881;DHT22;20172;47.530;10.256;2023-02-18T15:25:38;27.50;41.70
33881;DHT22;20172;47.530;10.256;2023-02-18T15:28:03;26.50;42.90
33881;DHT22;20172;47.530;10.256;2023-02-18T15:30:29;26.20;43.70
33881;DHT22;20172;47.530;10.256;2023-02-18T15:32:56;25.60;44.00
33881;DHT22;20172;47.530;10.256;2023-02-18T15:35:22;25.10;44.90
33881;DHT22;20172;47.530;10.256;2023-02-18T15:37:54;23.90;45.60
33881;DHT22;20172;47.530;10.256;2023-02-18T15:40:21;23.00;46.70
33881;DHT22;20172;47.530;10.256;2023-02-18T15:42:49;21.80;47.70
33881;DHT22;20172;47.530;10.256;2023-02-18T15:45:16;20.70;49.50
33881;DHT22;20172;47.530;10.256;2023-02-18T15:47:49;19.90;53.10
33881;DHT22;20172;47.530;10.256;2023-02-18T15:50:16;19.40;54.70
33881;DHT22;20172;47.530;10.256;2023-02-18T15:52:43;18.90;56.60
33881;DHT22;20172;47.530;10.256;2023-02-18T15:55:18;18.30;57.40
33881;DHT22;20172;47.530;10.256;2023-02-18T15:57:45;17.80;59.10
33881;DHT22;20172;47.530;10.256;2023-02-18T16:02:50;16.90;62.20
33881;DHT22;20172;47.530;10.256;2023-02-18T16:05:16;16.70;63.10
33881;DHT22;20172;47.530;10.256;2023-02-18T16:07:48;16.40;63.60
33881;DHT22;20172;47.530;10.256;2023-02-18T16:10:37;16.30;64.40
33881;DHT22;20172;47.530;10.256;2023-02-18T16:13:03;16.30;64.50
33881;DHT22;20172;47.530;10.256;2023-02-18T16:15:39;16.30;64.60
33881;DHT22;20172;47.530;10.256;2023-02-18T16:18:16;16.30;65.00
33881;DHT22;20172;47.530;10.256;2023-02-18T16:20:47;16.20;65.20
33881;DHT22;20172;47.530;10.256;2023-02-18T16:23:16;15.90;66.00
33881;DHT22;20172;47.530;10.256;2023-02-18T16:25:46;15.70;67.50
33881;DHT22;20172;47.530;10.256;2023-02-18T16:30:41;15.30;68.10
33881;DHT22;20172;47.530;10.256;2023-02-18T16:33:09;15.30;68.70
33881;DHT22;20172;47.530;10.256;2023-02-18T16:35:35;15.20;69.30
33881;DHT22;20172;47.530;10.256;2023-02-18T16:38:00;15.20;70.30
33881;DHT22;20172;47.530;10.256;2023-02-18T16:42:52;14.80;70.50
33881;DHT22;20172;47.530;10.256;2023-02-18T16:45:18;14.70;70.80
33881;DHT22;20172;47.530;10.256;2023-02-18T16:47:45;14.60;70.90
33881;DHT22;20172;47.530;10.256;2023-02-18T16:50:20;14.40;72.00
33881;DHT22;20172;47.530;10.256;2023-02-18T16:52:46;14.30;71.00
33881;DHT22;20172;47.530;10.256;2023-02-18T16:57:40;14.20;71.20
33881;DHT22;20172;47.530;10.256;2023-02-18T17:00:06;14.20;71.70
33881;DHT22;20172;47.530;10.256;2023-02-18T17:02:31;14.10;72.40
33881;DHT22;20172;47.530;10.256;2023-02-18T17:04:57;14.10;72.70
33881;DHT22;20172;47.530;10.256;2023-02-18T17:07:23;14.10;73.10
33881;DHT22;20172;47.530;10.256;2023-02-18T17:09:49;14.00;73.60
33881;DHT22;20172;47.530;10.256;2023-02-18T17:12:14;14.00;73.90
33881;DHT22;20172;47.530;10.256;2023-02-18T17:14:40;13.80;74.20
33881;DHT22;20172;47.530;10.256;2023-02-18T17:17:08;13.90;74.60
33881;DHT22;20172;47.530;10.256;2023-02-18T17:19:35;13.90;74.80
33881;DHT22;20172;47.530;10.256;2023-02-18T17:22:00;13.80;74.90
33881;DHT22;20172;47.530;10.256;2023-02-18T17:24:26;13.80;75.50
33881;DHT22;20172;47.530;10.256;2023-02-18T17:26:51;13.90;75.80
33881;DHT22;20172;47.530;10.256;2023-02-18T17:29:17;13.80;76.10
33881;DHT22;20172;47.530;10.256;2023-02-18T17:31:44;13.80;76.60
33881;DHT22;20172;47.530;10.256;2023-02-18T17:34:13;13.70;76.80
33881;DHT22;20172;47.530;10.256;2023-02-18T17:36:39;13.70;76.90
33881;DHT22;20172;47.530;10.256;2023-02-18T17:39:13;13.60;77.10
33881;DHT22;20172;47.530;10.256;2023-02-18T17:41:39;13.60;77.20
33881;DHT22;20172;47.530;10.256;2023-02-18T17:44:11;13.60;77.60
33881;DHT22;20172;47.530;10.256;2023-02-18T17:46:37;13.60;77.50
33881;DHT22;20172;47.530;10.256;2023-02-18T17:49:03;13.60;77.70
33881;DHT22;20172;47.530;10.256;2023-02-18T17:51:28;13.50;78.10
33881;DHT22;20172;47.530;10.256;2023-02-18T17:53:54;13.50;78.50
33881;DHT22;20172;47.530;10.256;2023-02-18T17:56:20;13.40;78.50
33881;DHT22;20172;47.530;10.256;2023-02-18T17:58:46;13.40;78.80
33881;DHT22;20172;47.530;10.256;2023-02-18T18:01:13;13.30;79.10